sensor_id;sensor_type;location;lat;lon;timestamp;P1;durP1;ratioP1;P2;durP2;ratioP2
10481;SDS011;5288;42.334;23.876;2023-05-02T00:01:18;8.03;;;6.20;;
10481;SDS011;5288;42.334;23.876;2023-05-02T00:03:45;14.30;;;7.23;;
10481;SDS011;5288;42.334;23.876;2023-05-02T00:06:12;9.60;;;8.23;;
10481;SDS011;5288;42.334;23.876;2023-05-02T00:08:41;9.07;;;6.73;;
10481;SDS011;5288;42.334;23.876;2023-05-02T00:11:08;13.93;;;8.80;;
10481;SDS011;5288;42.334;23.876;2023-05-02T00:13:35;8.63;;;7.27;;
10481;SDS011;5288;42.334;23.876;2023-05-02T00:16:02;7.87;;;7.07;;
10481;SDS011;5288;42.334;23.876;2023-05-02T00:18:29;7.60;;;6.83;;
10481;SDS011;5288;42.334;23.876;2023-05-02T00:20:56;8.77;;;6.73;;
10481;SDS011;5288;42.334;23.876;2023-05-02T00:23:23;6.57;;;5.97;;
10481;SDS011;5288;42.334;23.876;2023-05-02T00:25:51;6.53;;;5.93;;
10481;SDS011;5288;42.334;23.876;2023-05-02T00:28:18;6.07;;;5.57;;
10481;SDS011;5288;42.334;23.876;2023-05-02T00:30:45;9.37;;;5.93;;
10481;SDS011;5288;42.334;23.876;2023-05-02T00:33:13;6.33;;;5.73;;
10481;SDS011;5288;42.334;23.876;2023-05-02T00:35:40;6.80;;;6.10;;
10481;SDS011;5288;42.334;23.876;2023-05-02T00:38:07;7.13;;;6.47;;
10481;SDS011;5288;42.334;23.876;2023-05-02T00:40:43;6.87;;;6.27;;
10481;SDS011;5288;42.334;23.876;2023-05-02T00:43:13;6.80;;;6.13;;
10481;SDS011;5288;42.334;23.876;2023-05-02T00:45:41;6.70;;;6.10;;
10481;SDS011;5288;42.334;23.876;2023-05-02T00:48:08;10.70;;;6.90;;
10481;SDS011;5288;42.334;23.876;2023-05-02T00:50:36;7.50;;;6.80;;
10481;SDS011;5288;42.334;23.876;2023-05-02T00:53:04;9.03;;;6.93;;
10481;SDS011;5288;42.334;23.876;2023-05-02T00:55:32;17.10;;;12.33;;
10481;SDS011;5288;42.334;23.876;2023-05-02T00:58:00;8.83;;;7.93;;
10481;SDS011;5288;42.334;23.876;2023-05-02T01:00:32;15.33;;;13.10;;
10481;SDS011;5288;42.334;23.876;2023-05-02T01:03:14;8.60;;;7.30;;
10481;SDS011;5288;42.334;23.876;2023-05-02T01:05:49;7.73;;;6.87;;
10481;SDS011;5288;42.334;23.876;2023-05-02T01:08:27;7.80;;;7.00;;
10481;SDS011;5288;42.334;23.876;2023-05-02T01:11:02;8.30;;;7.50;;
10481;SDS011;5288;42.334;23.876;2023-05-02T01:13:37;8.37;;;7.67;;
10481;SDS011;5288;42.334;23.876;2023-05-02T01:16:07;7.93;;;7.13;;
10481;SDS011;5288;42.334;23.876;2023-05-02T01:18:37;7.43;;;6.77;;
10481;SDS011;5288;42.334;23.876;2023-05-02T01:21:08;7.10;;;6.40;;
10481;SDS011;5288;42.334;23.876;2023-05-02T01:23:42;8.53;;;7.73;;
10481;SDS011;5288;42.334;23.876;2023-05-02T01:26:23;6.97;;;6.37;;
10481;SDS011;5288;42.334;23.876;2023-05-02T01:28:57;7.57;;;6.87;;
10481;SDS011;5288;42.334;23.876;2023-05-02T01:31:25;7.60;;;6.60;;
10481;SDS011;5288;42.334;23.876;2023-05-02T01:33:56;7.83;;;7.10;;
10481;SDS011;5288;42.334;23.876;2023-05-02T01:36:27;9.00;;;8.00;;
10481;SDS011;5288;42.334;23.876;2023-05-02T01:38:56;6.80;;;6.20;;
10481;SDS011;5288;42.334;23.876;2023-05-02T01:41:26;9.27;;;8.23;;
10481;SDS011;5288;42.334;23.876;2023-05-02T01:43:55;12.63;;;7.80;;
10481;SDS011;5288;42.334;23.876;2023-05-02T01:46:25;11.20;;;9.33;;
10481;SDS011;5288;42.334;23.876;2023-05-02T01:48:55;9.93;;;8.93;;
10481;SDS011;5288;42.334;23.876;2023-05-02T01:51:24;12.80;;;11.40;;
10481;SDS011;5288;42.334;23.876;2023-05-02T01:53:56;10.20;;;8.20;;
10481;SDS011;5288;42.334;23.876;2023-05-02T01:56:26;10.23;;;9.13;;
10481;SDS011;5288;42.334;23.876;2023-05-02T01:58:57;14.23;;;10.33;;
10481;SDS011;5288;42.334;23.876;2023-05-02T02:01:29;9.43;;;8.30;;
10481;SDS011;5288;42.334;23.876;2023-05-02T02:03:56;8.00;;;7.20;;
10481;SDS011;5288;42.334;23.876;2023-05-02T02:06:24;11.93;;;9.53;;
10481;SDS011;5288;42.334;23.876;2023-05-02T02:08:52;11.57;;;9.67;;
10481;SDS011;5288;42.334;23.876;2023-05-02T02:11:21;11.90;;;9.33;;
10481;SDS011;5288;42.334;23.876;2023-05-02T02:13:54;15.03;;;12.20;;
10481;SDS011;5288;42.334;23.876;2023-05-02T02:16:29;12.93;;;10.00;;
10481;SDS011;5288;42.334;23.876;2023-05-02T02:18:58;11.37;;;9.63;;
10481;SDS011;5288;42.334;23.876;2023-05-02T02:21:31;9.00;;;8.10;;
10481;SDS011;5288;42.334;23.876;2023-05-02T02:24:02;70.33;;;31.13;;
10481;SDS011;5288;42.334;23.876;2023-05-02T02:26:32;31.20;;;16.77;;
10481;SDS011;5288;42.334;23.876;2023-05-02T02:28:59;31.37;;;16.70;;
10481;SDS011;5288;42.334;23.876;2023-05-02T02:31:30;21.10;;;14.27;;
10481;SDS011;5288;42.334;23.876;2023-05-02T02:33:58;11.57;;;9.93;;
10481;SDS011;5288;42.334;23.876;2023-05-02T02:36:27;9.93;;;8.53;;
10481;SDS011;5288;42.334;23.876;2023-05-02T02:39:06;9.50;;;8.43;;
10481;SDS011;5288;42.334;23.876;2023-05-02T02:41:44;8.37;;;7.57;;
10481;SDS011;5288;42.334;23.876;2023-05-02T02:44:25;11.03;;;8.30;;
10481;SDS011;5288;42.334;23.876;2023-05-02T02:47:04;9.37;;;8.30;;
10481;SDS011;5288;42.334;23.876;2023-05-02T02:49:37;9.17;;;7.83;;
10481;SDS011;5288;42.334;23.876;2023-05-02T02:52:16;10.37;;;8.77;;
10481;SDS011;5288;42.334;23.876;2023-05-02T02:54:50;9.43;;;8.40;;
10481;SDS011;5288;42.334;23.876;2023-05-02T02:57:23;12.03;;;10.83;;
10481;SDS011;5288;42.334;23.876;2023-05-02T02:59:56;9.23;;;8.33;;
10481;SDS011;5288;42.334;23.876;2023-05-02T03:02:32;9.70;;;8.40;;
10481;SDS011;5288;42.334;23.876;2023-05-02T03:05:01;10.30;;;9.20;;
10481;SDS011;5288;42.334;23.876;2023-05-02T03:07:30;9.63;;;8.70;;
10481;SDS011;5288;42.334;23.876;2023-05-02T03:09:57;11.70;;;8.77;;
10481;SDS011;5288;42.334;23.876;2023-05-02T03:12:24;9.17;;;8.33;;
10481;SDS011;5288;42.334;23.876;2023-05-02T03:14:51;11.63;;;10.43;;
10481;SDS011;5288;42.334;23.876;2023-05-02T03:17:21;11.93;;;9.73;;
10481;SDS011;5288;42.334;23.876;2023-05-02T03:19:49;11.53;;;9.13;;
10481;SDS011;5288;42.334;23.876;2023-05-02T03:22:16;15.97;;;8.83;;
10481;SDS011;5288;42.334;23.876;2023-05-02T03:24:43;13.53;;;9.03;;
10481;SDS011;5288;42.334;23.876;2023-05-02T03:27:10;10.47;;;9.27;;
10481;SDS011;5288;42.334;23.876;2023-05-02T03:29:37;12.23;;;9.57;;
10481;SDS011;5288;42.334;23.876;2023-05-02T03:32:04;10.63;;;9.13;;
10481;SDS011;5288;42.334;23.876;2023-05-02T03:34:31;13.77;;;9.43;;
10481;SDS011;5288;42.334;23.876;2023-05-02T03:36:59;10.70;;;8.93;;
10481;SDS011;5288;42.334;23.876;2023-05-02T03:39:26;12.67;;;9.30;;
10481;SDS011;5288;42.334;23.876;2023-05-02T03:41:53;12.47;;;9.93;;
10481;SDS011;5288;42.334;23.876;2023-05-02T03:44:20;12.03;;;10.60;;
10481;SDS011;5288;42.334;23.876;2023-05-02T03:46:47;12.60;;;10.23;;
10481;SDS011;5288;42.334;23.876;2023-05-02T03:49:14;13.83;;;11.27;;
10481;SDS011;5288;42.334;23.876;2023-05-02T03:51:43;12.00;;;10.07;;
10481;SDS011;5288;42.334;23.876;2023-05-02T03:54:12;17.90;;;10.60;;
10481;SDS011;5288;42.334;23.876;2023-05-02T03:56:39;12.07;;;10.43;;
10481;SDS011;5288;42.334;23.876;2023-05-02T03:59:06;15.20;;;11.37;;
10481;SDS011;5288;42.334;23.876;2023-05-02T04:01:33;12.07;;;9.43;;
10481;SDS011;5288;42.334;23.876;2023-05-02T04:04:00;14.57;;;10.37;;
10481;SDS011;5288;42.334;23.876;2023-05-02T04:06:27;11.07;;;9.80;;
10481;SDS011;5288;42.334;23.876;2023-05-02T04:08:54;12.23;;;9.77;;
10481;SDS011;5288;42.334;23.876;2023-05-02T04:11:24;12.03;;;10.60;;
10481;SDS011;5288;42.334;23.876;2023-05-02T04:13:52;13.40;;;10.07;;
10481;SDS011;5288;42.334;23.876;2023-05-02T04:16:19;17.33;;;12.50;;
10481;SDS011;5288;42.334;23.876;2023-05-02T04:18:46;14.23;;;12.30;;
10481;SDS011;5288;42.334;23.876;2023-05-02T04:21:13;17.53;;;12.37;;
10481;SDS011;5288;42.334;23.876;2023-05-02T04:23:40;19.47;;;12.67;;
10481;SDS011;5288;42.334;23.876;2023-05-02T04:26:07;16.93;;;12.47;;
10481;SDS011;5288;42.334;23.876;2023-05-02T04:28:36;13.57;;;11.73;;
10481;SDS011;5288;42.334;23.876;2023-05-02T04:31:03;17.57;;;13.20;;
10481;SDS011;5288;42.334;23.876;2023-05-02T04:33:30;13.50;;;11.03;;
10481;SDS011;5288;42.334;23.876;2023-05-02T04:35:57;12.03;;;10.73;;
10481;SDS011;5288;42.334;23.876;2023-05-02T04:38:24;13.80;;;10.97;;
10481;SDS011;5288;42.334;23.876;2023-05-02T04:40:51;15.27;;;10.10;;
10481;SDS011;5288;42.334;23.876;2023-05-02T04:43:18;14.03;;;10.10;;
10481;SDS011;5288;42.334;23.876;2023-05-02T04:45:47;12.07;;;9.10;;
10481;SDS011;5288;42.334;23.876;2023-05-02T04:48:14;8.73;;;7.60;;
10481;SDS011;5288;42.334;23.876;2023-05-02T04:50:41;8.63;;;6.67;;
10481;SDS011;5288;42.334;23.876;2023-05-02T04:53:10;7.30;;;6.40;;
10481;SDS011;5288;42.334;23.876;2023-05-02T04:55:37;8.10;;;7.17;;
10481;SDS011;5288;42.334;23.876;2023-05-02T04:58:04;9.60;;;8.27;;
10481;SDS011;5288;42.334;23.876;2023-05-02T05:00:31;7.40;;;5.87;;
10481;SDS011;5288;42.334;23.876;2023-05-02T05:02:59;8.33;;;5.97;;
10481;SDS011;5288;42.334;23.876;2023-05-02T05:05:26;9.53;;;5.07;;
10481;SDS011;5288;42.334;23.876;2023-05-02T05:07:53;5.67;;;5.10;;
10481;SDS011;5288;42.334;23.876;2023-05-02T05:10:20;5.03;;;4.63;;
10481;SDS011;5288;42.334;23.876;2023-05-02T05:12:47;7.17;;;4.50;;
10481;SDS011;5288;42.334;23.876;2023-05-02T05:15:15;6.33;;;4.10;;
10481;SDS011;5288;42.334;23.876;2023-05-02T05:17:42;4.50;;;3.77;;
10481;SDS011;5288;42.334;23.876;2023-05-02T05:20:11;12.07;;;3.83;;
10481;SDS011;5288;42.334;23.876;2023-05-02T05:22:38;7.83;;;3.80;;
10481;SDS011;5288;42.334;23.876;2023-05-02T05:25:05;4.80;;;4.20;;
10481;SDS011;5288;42.334;23.876;2023-05-02T05:27:33;5.53;;;3.30;;
10481;SDS011;5288;42.334;23.876;2023-05-02T05:30:00;4.13;;;3.70;;
10481;SDS011;5288;42.334;23.876;2023-05-02T05:32:27;4.17;;;2.97;;
10481;SDS011;5288;42.334;23.876;2023-05-02T05:34:54;7.07;;;3.40;;
10481;SDS011;5288;42.334;23.876;2023-05-02T05:37:23;4.40;;;3.40;;
10481;SDS011;5288;42.334;23.876;2023-05-02T05:39:50;3.70;;;3.27;;
10481;SDS011;5288;42.334;23.876;2023-05-02T05:42:17;4.07;;;3.33;;
10481;SDS011;5288;42.334;23.876;2023-05-02T05:44:44;5.00;;;3.17;;
10481;SDS011;5288;42.334;23.876;2023-05-02T05:47:11;6.33;;;3.13;;
10481;SDS011;5288;42.334;23.876;2023-05-02T05:49:40;4.93;;;3.47;;
10481;SDS011;5288;42.334;23.876;2023-05-02T05:52:07;4.03;;;3.30;;
10481;SDS011;5288;42.334;23.876;2023-05-02T05:54:35;4.07;;;2.53;;
10481;SDS011;5288;42.334;23.876;2023-05-02T05:57:02;6.77;;;3.90;;
10481;SDS011;5288;42.334;23.876;2023-05-02T05:59:29;7.00;;;3.50;;
10481;SDS011;5288;42.334;23.876;2023-05-02T06:01:56;4.47;;;3.07;;
10481;SDS011;5288;42.334;23.876;2023-05-02T06:04:23;2.83;;;2.53;;
10481;SDS011;5288;42.334;23.876;2023-05-02T06:06:51;5.00;;;2.90;;
10481;SDS011;5288;42.334;23.876;2023-05-02T06:09:18;5.77;;;3.20;;
10481;SDS011;5288;42.334;23.876;2023-05-02T06:11:47;4.30;;;3.70;;
10481;SDS011;5288;42.334;23.876;2023-05-02T06:14:14;5.17;;;2.80;;
10481;SDS011;5288;42.334;23.876;2023-05-02T06:16:41;2.73;;;2.53;;
10481;SDS011;5288;42.334;23.876;2023-05-02T06:19:08;8.37;;;2.93;;
10481;SDS011;5288;42.334;23.876;2023-05-02T06:21:35;6.03;;;3.10;;
10481;SDS011;5288;42.334;23.876;2023-05-02T06:24:02;5.20;;;3.00;;
10481;SDS011;5288;42.334;23.876;2023-05-02T06:26:29;2.80;;;2.60;;
10481;SDS011;5288;42.334;23.876;2023-05-02T06:28:57;5.30;;;2.87;;
10481;SDS011;5288;42.334;23.876;2023-05-02T06:31:25;5.07;;;2.90;;
10481;SDS011;5288;42.334;23.876;2023-05-02T06:33:52;11.67;;;3.00;;
10481;SDS011;5288;42.334;23.876;2023-05-02T06:36:19;3.67;;;2.40;;
10481;SDS011;5288;42.334;23.876;2023-05-02T06:38:46;3.17;;;2.90;;
10481;SDS011;5288;42.334;23.876;2023-05-02T06:41:13;4.83;;;2.63;;
10481;SDS011;5288;42.334;23.876;2023-05-02T06:43:40;2.80;;;2.60;;
10481;SDS011;5288;42.334;23.876;2023-05-02T06:46:09;3.67;;;2.40;;
10481;SDS011;5288;42.334;23.876;2023-05-02T06:48:36;2.97;;;2.67;;
10481;SDS011;5288;42.334;23.876;2023-05-02T06:51:03;3.53;;;2.57;;
10481;SDS011;5288;42.334;23.876;2023-05-02T06:53:30;5.07;;;3.20;;
10481;SDS011;5288;42.334;23.876;2023-05-02T06:55:57;3.53;;;3.23;;
10481;SDS011;5288;42.334;23.876;2023-05-02T06:58:24;6.50;;;3.93;;
10481;SDS011;5288;42.334;23.876;2023-05-02T07:00:51;3.30;;;2.70;;
10481;SDS011;5288;42.334;23.876;2023-05-02T07:03:19;4.73;;;2.70;;
10481;SDS011;5288;42.334;23.876;2023-05-02T07:05:46;3.33;;;2.60;;
10481;SDS011;5288;42.334;23.876;2023-05-02T07:08:13;4.03;;;3.63;;
10481;SDS011;5288;42.334;23.876;2023-05-02T07:10:40;6.60;;;2.53;;
10481;SDS011;5288;42.334;23.876;2023-05-02T07:13:07;3.43;;;2.53;;
10481;SDS011;5288;42.334;23.876;2023-05-02T07:15:34;3.27;;;2.47;;
10481;SDS011;5288;42.334;23.876;2023-05-02T07:18:01;3.77;;;2.60;;
10481;SDS011;5288;42.334;23.876;2023-05-02T07:20:29;4.57;;;2.53;;
10481;SDS011;5288;42.334;23.876;2023-05-02T07:22:56;5.20;;;2.90;;
10481;SDS011;5288;42.334;23.876;2023-05-02T07:25:23;6.43;;;2.63;;
10481;SDS011;5288;42.334;23.876;2023-05-02T07:27:51;3.43;;;2.53;;
10481;SDS011;5288;42.334;23.876;2023-05-02T07:30:18;5.97;;;3.17;;
10481;SDS011;5288;42.334;23.876;2023-05-02T07:32:45;4.93;;;2.43;;
10481;SDS011;5288;42.334;23.876;2023-05-02T07:35:13;4.20;;;2.97;;
10481;SDS011;5288;42.334;23.876;2023-05-02T07:37:42;9.40;;;3.07;;
10481;SDS011;5288;42.334;23.876;2023-05-02T07:40:09;3.77;;;2.33;;
10481;SDS011;5288;42.334;23.876;2023-05-02T07:42:36;4.13;;;2.43;;
10481;SDS011;5288;42.334;23.876;2023-05-02T07:45:05;2.77;;;2.30;;
10481;SDS011;5288;42.334;23.876;2023-05-02T07:47:33;3.47;;;2.53;;
10481;SDS011;5288;42.334;23.876;2023-05-02T07:50:00;5.20;;;2.20;;
10481;SDS011;5288;42.334;23.876;2023-05-02T07:52:28;2.70;;;2.30;;
10481;SDS011;5288;42.334;23.876;2023-05-02T07:54:57;3.10;;;2.37;;
10481;SDS011;5288;42.334;23.876;2023-05-02T07:57:24;2.80;;;2.20;;
10481;SDS011;5288;42.334;23.876;2023-05-02T07:59:51;5.10;;;2.20;;
10481;SDS011;5288;42.334;23.876;2023-05-02T08:02:21;5.33;;;2.20;;
10481;SDS011;5288;42.334;23.876;2023-05-02T08:04:48;5.10;;;2.40;;
10481;SDS011;5288;42.334;23.876;2023-05-02T08:07:15;7.53;;;2.23;;
10481;SDS011;5288;42.334;23.876;2023-05-02T08:09:42;3.17;;;1.93;;
10481;SDS011;5288;42.334;23.876;2023-05-02T08:12:10;4.00;;;2.33;;
10481;SDS011;5288;42.334;23.876;2023-05-02T08:14:37;12.57;;;3.63;;
10481;SDS011;5288;42.334;23.876;2023-05-02T08:17:04;4.93;;;2.33;;
10481;SDS011;5288;42.334;23.876;2023-05-02T08:19:31;3.07;;;2.30;;
10481;SDS011;5288;42.334;23.876;2023-05-02T08:21:58;4.23;;;2.43;;
10481;SDS011;5288;42.334;23.876;2023-05-02T08:24:25;2.93;;;2.30;;
10481;SDS011;5288;42.334;23.876;2023-05-02T08:26:52;3.43;;;2.20;;
10481;SDS011;5288;42.334;23.876;2023-05-02T08:29:21;6.00;;;2.57;;
10481;SDS011;5288;42.334;23.876;2023-05-02T08:31:48;9.03;;;2.30;;
10481;SDS011;5288;42.334;23.876;2023-05-02T08:34:15;7.77;;;2.93;;
10481;SDS011;5288;42.334;23.876;2023-05-02T08:36:42;3.33;;;2.20;;
10481;SDS011;5288;42.334;23.876;2023-05-02T08:39:09;3.23;;;2.13;;
10481;SDS011;5288;42.334;23.876;2023-05-02T08:41:36;6.47;;;2.87;;
10481;SDS011;5288;42.334;23.876;2023-05-02T08:44:04;4.30;;;2.20;;
10481;SDS011;5288;42.334;23.876;2023-05-02T08:46:35;3.70;;;2.17;;
10481;SDS011;5288;42.334;23.876;2023-05-02T08:49:06;4.13;;;2.33;;
10481;SDS011;5288;42.334;23.876;2023-05-02T08:51:35;5.63;;;2.37;;
10481;SDS011;5288;42.334;23.876;2023-05-02T08:54:03;3.37;;;2.70;;
10481;SDS011;5288;42.334;23.876;2023-05-02T08:56:33;15.53;;;4.67;;
10481;SDS011;5288;42.334;23.876;2023-05-02T08:59:00;4.57;;;2.40;;
10481;SDS011;5288;42.334;23.876;2023-05-02T09:01:29;3.70;;;2.50;;
10481;SDS011;5288;42.334;23.876;2023-05-02T09:03:57;2.27;;;2.07;;
10481;SDS011;5288;42.334;23.876;2023-05-02T09:06:25;4.53;;;2.40;;
10481;SDS011;5288;42.334;23.876;2023-05-02T09:08:53;3.27;;;2.27;;
10481;SDS011;5288;42.334;23.876;2023-05-02T09:11:20;4.37;;;2.77;;
10481;SDS011;5288;42.334;23.876;2023-05-02T09:13:48;2.37;;;2.10;;
10481;SDS011;5288;42.334;23.876;2023-05-02T09:16:16;3.23;;;2.70;;
10481;SDS011;5288;42.334;23.876;2023-05-02T09:18:47;3.07;;;2.47;;
10481;SDS011;5288;42.334;23.876;2023-05-02T09:21:17;5.20;;;2.40;;
10481;SDS011;5288;42.334;23.876;2023-05-02T09:23:46;4.60;;;2.43;;
10481;SDS011;5288;42.334;23.876;2023-05-02T09:26:17;2.80;;;2.50;;
10481;SDS011;5288;42.334;23.876;2023-05-02T09:28:45;3.57;;;2.30;;
10481;SDS011;5288;42.334;23.876;2023-05-02T09:31:14;1.97;;;1.77;;
10481;SDS011;5288;42.334;23.876;2023-05-02T09:33:43;3.33;;;2.20;;
10481;SDS011;5288;42.334;23.876;2023-05-02T09:36:11;8.87;;;4.20;;
10481;SDS011;5288;42.334;23.876;2023-05-02T09:38:41;2.83;;;2.10;;
10481;SDS011;5288;42.334;23.876;2023-05-02T09:41:09;3.03;;;1.97;;
10481;SDS011;5288;42.334;23.876;2023-05-02T09:43:36;2.83;;;2.30;;
10481;SDS011;5288;42.334;23.876;2023-05-02T09:46:04;3.07;;;2.57;;
10481;SDS011;5288;42.334;23.876;2023-05-02T09:48:32;3.83;;;2.43;;
10481;SDS011;5288;42.334;23.876;2023-05-02T09:51:15;2.70;;;2.47;;
10481;SDS011;5288;42.334;23.876;2023-05-02T09:53:44;4.97;;;2.50;;
10481;SDS011;5288;42.334;23.876;2023-05-02T09:56:12;5.93;;;4.00;;
10481;SDS011;5288;42.334;23.876;2023-05-02T09:58:39;4.80;;;3.20;;
10481;SDS011;5288;42.334;23.876;2023-05-02T10:01:06;3.90;;;2.40;;
10481;SDS011;5288;42.334;23.876;2023-05-02T10:03:35;4.43;;;3.00;;
10481;SDS011;5288;42.334;23.876;2023-05-02T10:06:03;2.40;;;2.20;;
10481;SDS011;5288;42.334;23.876;2023-05-02T10:08:33;4.70;;;2.50;;
10481;SDS011;5288;42.334;23.876;2023-05-02T10:11:02;3.40;;;2.30;;
10481;SDS011;5288;42.334;23.876;2023-05-02T10:13:33;5.93;;;3.50;;
10481;SDS011;5288;42.334;23.876;2023-05-02T10:16:04;14.87;;;4.30;;
10481;SDS011;5288;42.334;23.876;2023-05-02T10:18:32;5.00;;;2.77;;
10481;SDS011;5288;42.334;23.876;2023-05-02T10:21:08;6.37;;;3.23;;
10481;SDS011;5288;42.334;23.876;2023-05-02T10:23:37;4.70;;;2.33;;
10481;SDS011;5288;42.334;23.876;2023-05-02T10:26:09;3.73;;;2.53;;
10481;SDS011;5288;42.334;23.876;2023-05-02T10:28:37;4.77;;;2.70;;
10481;SDS011;5288;42.334;23.876;2023-05-02T10:31:07;5.37;;;2.87;;
10481;SDS011;5288;42.334;23.876;2023-05-02T10:33:35;3.20;;;2.40;;
10481;SDS011;5288;42.334;23.876;2023-05-02T10:36:04;3.53;;;2.33;;
10481;SDS011;5288;42.334;23.876;2023-05-02T10:38:34;3.77;;;2.83;;
10481;SDS011;5288;42.334;23.876;2023-05-02T10:41:03;3.33;;;2.70;;
10481;SDS011;5288;42.334;23.876;2023-05-02T10:43:36;4.27;;;2.73;;
10481;SDS011;5288;42.334;23.876;2023-05-02T10:49:02;9.90;;;2.87;;
10481;SDS011;5288;42.334;23.876;2023-05-02T10:51:30;7.50;;;2.90;;
10481;SDS011;5288;42.334;23.876;2023-05-02T10:59:39;5.43;;;2.60;;
10481;SDS011;5288;42.334;23.876;2023-05-02T11:05:07;3.57;;;2.47;;
10481;SDS011;5288;42.334;23.876;2023-05-02T11:07:34;3.13;;;2.80;;
10481;SDS011;5288;42.334;23.876;2023-05-02T11:12:52;6.63;;;3.57;;
10481;SDS011;5288;42.334;23.876;2023-05-02T11:18:23;3.63;;;2.87;;
10481;SDS011;5288;42.334;23.876;2023-05-02T11:20:51;5.00;;;2.33;;
10481;SDS011;5288;42.334;23.876;2023-05-02T11:23:23;4.23;;;2.50;;
10481;SDS011;5288;42.334;23.876;2023-05-02T11:25:54;6.83;;;3.00;;
10481;SDS011;5288;42.334;23.876;2023-05-02T11:28:41;4.93;;;2.33;;
10481;SDS011;5288;42.334;23.876;2023-05-02T11:34:28;6.60;;;2.50;;
10481;SDS011;5288;42.334;23.876;2023-05-02T11:37:09;3.57;;;2.17;;
10481;SDS011;5288;42.334;23.876;2023-05-02T11:39:37;3.17;;;1.90;;
10481;SDS011;5288;42.334;23.876;2023-05-02T11:42:04;3.40;;;2.30;;
10481;SDS011;5288;42.334;23.876;2023-05-02T11:44:31;2.83;;;2.17;;
10481;SDS011;5288;42.334;23.876;2023-05-02T11:46:59;3.53;;;2.37;;
10481;SDS011;5288;42.334;23.876;2023-05-02T11:49:29;3.87;;;2.47;;
10481;SDS011;5288;42.334;23.876;2023-05-02T11:51:57;5.30;;;3.13;;
10481;SDS011;5288;42.334;23.876;2023-05-02T11:54:24;5.17;;;2.40;;
10481;SDS011;5288;42.334;23.876;2023-05-02T11:56:51;3.37;;;2.20;;
10481;SDS011;5288;42.334;23.876;2023-05-02T11:59:18;3.23;;;2.40;;
10481;SDS011;5288;42.334;23.876;2023-05-02T12:01:49;2.67;;;2.00;;
10481;SDS011;5288;42.334;23.876;2023-05-02T12:04:17;2.97;;;1.80;;
10481;SDS011;5288;42.334;23.876;2023-05-02T12:06:55;4.83;;;2.60;;
10481;SDS011;5288;42.334;23.876;2023-05-02T12:09:22;2.17;;;1.60;;
10481;SDS011;5288;42.334;23.876;2023-05-02T12:11:50;5.80;;;2.00;;
10481;SDS011;5288;42.334;23.876;2023-05-02T12:14:25;4.60;;;2.10;;
10481;SDS011;5288;42.334;23.876;2023-05-02T12:16:53;5.30;;;1.90;;
10481;SDS011;5288;42.334;23.876;2023-05-02T12:19:20;2.67;;;2.07;;
10481;SDS011;5288;42.334;23.876;2023-05-02T12:21:47;3.20;;;1.80;;
10481;SDS011;5288;42.334;23.876;2023-05-02T12:24:16;6.83;;;1.90;;
10481;SDS011;5288;42.334;23.876;2023-05-02T12:26:43;3.80;;;1.90;;
10481;SDS011;5288;42.334;23.876;2023-05-02T12:29:11;4.80;;;1.97;;
10481;SDS011;5288;42.334;23.876;2023-05-02T12:31:38;4.17;;;1.90;;
10481;SDS011;5288;42.334;23.876;2023-05-02T12:34:05;9.23;;;2.10;;
10481;SDS011;5288;42.334;23.876;2023-05-02T12:36:32;2.80;;;1.87;;
10481;SDS011;5288;42.334;23.876;2023-05-02T12:39:00;3.67;;;2.13;;
10481;SDS011;5288;42.334;23.876;2023-05-02T12:41:33;3.87;;;1.90;;
10481;SDS011;5288;42.334;23.876;2023-05-02T12:44:02;2.53;;;1.90;;
10481;SDS011;5288;42.334;23.876;2023-05-02T12:46:29;2.43;;;1.60;;
10481;SDS011;5288;42.334;23.876;2023-05-02T12:49:03;2.33;;;1.70;;
10481;SDS011;5288;42.334;23.876;2023-05-02T12:51:32;2.10;;;1.50;;
10481;SDS011;5288;42.334;23.876;2023-05-02T12:53:59;10.93;;;2.10;;
10481;SDS011;5288;42.334;23.876;2023-05-02T12:56:26;2.30;;;1.73;;
10481;SDS011;5288;42.334;23.876;2023-05-02T12:58:57;4.57;;;1.70;;
10481;SDS011;5288;42.334;23.876;2023-05-02T13:01:25;2.40;;;1.70;;
10481;SDS011;5288;42.334;23.876;2023-05-02T13:03:52;4.93;;;1.87;;
10481;SDS011;5288;42.334;23.876;2023-05-02T13:06:20;3.10;;;2.50;;
10481;SDS011;5288;42.334;23.876;2023-05-02T13:08:47;6.30;;;4.37;;
10481;SDS011;5288;42.334;23.876;2023-05-02T13:11:14;3.57;;;1.73;;
10481;SDS011;5288;42.334;23.876;2023-05-02T13:13:42;7.57;;;4.13;;
10481;SDS011;5288;42.334;23.876;2023-05-02T13:16:10;4.60;;;3.00;;
10481;SDS011;5288;42.334;23.876;2023-05-02T13:18:37;5.07;;;1.83;;
10481;SDS011;5288;42.334;23.876;2023-05-02T13:21:04;10.97;;;2.63;;
10481;SDS011;5288;42.334;23.876;2023-05-02T13:23:31;4.37;;;1.73;;
10481;SDS011;5288;42.334;23.876;2023-05-02T13:25:58;3.63;;;1.40;;
10481;SDS011;5288;42.334;23.876;2023-05-02T13:28:25;4.00;;;1.70;;
10481;SDS011;5288;42.334;23.876;2023-05-02T13:30:54;6.30;;;1.90;;
10481;SDS011;5288;42.334;23.876;2023-05-02T13:33:22;2.60;;;1.60;;
10481;SDS011;5288;42.334;23.876;2023-05-02T13:35:49;4.30;;;1.73;;
10481;SDS011;5288;42.334;23.876;2023-05-02T13:38:16;2.43;;;1.40;;
10481;SDS011;5288;42.334;23.876;2023-05-02T13:40:43;1.53;;;1.43;;
10481;SDS011;5288;42.334;23.876;2023-05-02T13:43:10;7.63;;;2.00;;
10481;SDS011;5288;42.334;23.876;2023-05-02T13:45:37;3.17;;;2.07;;
10481;SDS011;5288;42.334;23.876;2023-05-02T13:48:05;4.60;;;1.70;;
10481;SDS011;5288;42.334;23.876;2023-05-02T13:50:33;4.47;;;1.70;;
10481;SDS011;5288;42.334;23.876;2023-05-02T13:53:02;2.03;;;1.50;;
10481;SDS011;5288;42.334;23.876;2023-05-02T13:55:29;3.00;;;1.50;;
10481;SDS011;5288;42.334;23.876;2023-05-02T13:57:56;3.80;;;1.50;;
10481;SDS011;5288;42.334;23.876;2023-05-02T14:00:23;1.30;;;1.20;;
10481;SDS011;5288;42.334;23.876;2023-05-02T14:02:52;2.20;;;1.97;;
10481;SDS011;5288;42.334;23.876;2023-05-02T14:05:19;4.17;;;1.43;;
10481;SDS011;5288;42.334;23.876;2023-05-02T14:07:48;1.90;;;1.43;;
10481;SDS011;5288;42.334;23.876;2023-05-02T14:10:15;2.10;;;1.50;;
10481;SDS011;5288;42.334;23.876;2023-05-02T14:12:42;4.57;;;1.60;;
10481;SDS011;5288;42.334;23.876;2023-05-02T14:15:09;4.63;;;1.87;;
10481;SDS011;5288;42.334;23.876;2023-05-02T14:17:36;2.93;;;2.13;;
10481;SDS011;5288;42.334;23.876;2023-05-02T14:20:04;2.20;;;1.30;;
10481;SDS011;5288;42.334;23.876;2023-05-02T14:22:32;2.07;;;1.70;;
10481;SDS011;5288;42.334;23.876;2023-05-02T14:25:00;3.60;;;1.77;;
10481;SDS011;5288;42.334;23.876;2023-05-02T14:27:27;3.60;;;2.13;;
10481;SDS011;5288;42.334;23.876;2023-05-02T14:29:54;8.73;;;3.27;;
10481;SDS011;5288;42.334;23.876;2023-05-02T14:32:21;5.00;;;2.57;;
10481;SDS011;5288;42.334;23.876;2023-05-02T14:34:48;3.37;;;2.00;;
10481;SDS011;5288;42.334;23.876;2023-05-02T14:37:15;4.20;;;3.00;;
10481;SDS011;5288;42.334;23.876;2023-05-02T14:39:42;3.03;;;2.00;;
10481;SDS011;5288;42.334;23.876;2023-05-02T14:42:11;3.37;;;1.50;;
10481;SDS011;5288;42.334;23.876;2023-05-02T14:44:38;4.30;;;1.77;;
10481;SDS011;5288;42.334;23.876;2023-05-02T14:47:06;3.43;;;1.83;;
10481;SDS011;5288;42.334;23.876;2023-05-02T14:49:33;3.27;;;1.57;;
10481;SDS011;5288;42.334;23.876;2023-05-02T14:52:00;2.30;;;1.70;;
10481;SDS011;5288;42.334;23.876;2023-05-02T14:54:27;2.40;;;1.40;;
10481;SDS011;5288;42.334;23.876;2023-05-02T14:56:54;4.87;;;2.70;;
10481;SDS011;5288;42.334;23.876;2023-05-02T14:59:23;2.27;;;1.70;;
10481;SDS011;5288;42.334;23.876;2023-05-02T15:01:53;3.07;;;2.00;;
10481;SDS011;5288;42.334;23.876;2023-05-02T15:04:20;2.07;;;1.60;;
10481;SDS011;5288;42.334;23.876;2023-05-02T15:06:48;2.57;;;1.60;;
10481;SDS011;5288;42.334;23.876;2023-05-02T15:09:17;4.70;;;1.70;;
10481;SDS011;5288;42.334;23.876;2023-05-02T15:11:45;3.07;;;1.70;;